sensor_id;sensor_type;location;lat;lon;timestamp;P1;durP1;ratioP1;P2;durP2;ratioP2
70450;SDS011;58869;51.982;4.450;2024-01-15T00:01:30;7.67;;;4.58;;
70450;SDS011;58869;51.982;4.450;2024-01-15T00:04:13;8.64;;;5.12;;
70450;SDS011;58869;51.982;4.450;2024-01-15T00:06:57;8.81;;;5.23;;
70450;SDS011;58869;51.982;4.450;2024-01-15T00:09:22;8.72;;;5.22;;
70450;SDS011;58869;51.982;4.450;2024-01-15T00:18:32;8.81;;;5.26;;
70450;SDS011;58869;51.982;4.450;2024-01-15T00:21:09;8.45;;;5.03;;
70450;SDS011;58869;51.982;4.450;2024-01-15T00:26:50;7.55;;;4.52;;
70450;SDS011;58869;51.982;4.450;2024-01-15T00:32:16;6.92;;;4.16;;
70450;SDS011;58869;51.982;4.450;2024-01-15T00:35:09;6.85;;;4.11;;
70450;SDS011;58869;51.982;4.450;2024-01-15T00:38:23;7.33;;;4.32;;
70450;SDS011;58869;51.982;4.450;2024-01-15T00:41:06;7.80;;;4.58;;
70450;SDS011;58869;51.982;4.450;2024-01-15T00:43:32;8.34;;;4.90;;
70450;SDS011;58869;51.982;4.450;2024-01-15T00:45:57;7.68;;;4.51;;
70450;SDS011;58869;51.982;4.450;2024-01-15T00:48:23;8.55;;;5.04;;
70450;SDS011;58869;51.982;4.450;2024-01-15T00:50:48;7.61;;;4.50;;
70450;SDS011;58869;51.982;4.450;2024-01-15T00:53:23;7.82;;;4.63;;
70450;SDS011;58869;51.982;4.450;2024-01-15T00:55:49;8.28;;;4.89;;
70450;SDS011;58869;51.982;4.450;2024-01-15T01:01:11;7.36;;;4.39;;
70450;SDS011;58869;51.982;4.450;2024-01-15T01:03:39;7.88;;;4.66;;
70450;SDS011;58869;51.982;4.450;2024-01-15T01:06:16;6.94;;;4.13;;
70450;SDS011;58869;51.982;4.450;2024-01-15T01:08:41;7.88;;;4.71;;
70450;SDS011;58869;51.982;4.450;2024-01-15T01:14:03;7.02;;;4.11;;
70450;SDS011;58869;51.982;4.450;2024-01-15T01:16:32;6.68;;;3.94;;
70450;SDS011;58869;51.982;4.450;2024-01-15T01:19:06;6.04;;;3.58;;
70450;SDS011;58869;51.982;4.450;2024-01-15T01:21:32;6.85;;;4.03;;
70450;SDS011;58869;51.982;4.450;2024-01-15T01:24:08;7.32;;;4.34;;
70450;SDS011;58869;51.982;4.450;2024-01-15T01:26:46;6.82;;;4.07;;
70450;SDS011;58869;51.982;4.450;2024-01-15T01:29:26;7.04;;;4.19;;
70450;SDS011;58869;51.982;4.450;2024-01-15T01:32:12;7.25;;;4.29;;
70450;SDS011;58869;51.982;4.450;2024-01-15T01:35:04;7.91;;;4.67;;
70450;SDS011;58869;51.982;4.450;2024-01-15T01:37:31;7.58;;;4.41;;
70450;SDS011;58869;51.982;4.450;2024-01-15T01:40:13;6.98;;;4.09;;
70450;SDS011;58869;51.982;4.450;2024-01-15T01:42:44;7.24;;;4.26;;
70450;SDS011;58869;51.982;4.450;2024-01-15T01:45:13;7.30;;;4.32;;
70450;SDS011;58869;51.982;4.450;2024-01-15T01:47:38;6.56;;;3.93;;
70450;SDS011;58869;51.982;4.450;2024-01-15T01:50:24;6.35;;;3.81;;
70450;SDS011;58869;51.982;4.450;2024-01-15T01:53:02;5.92;;;3.52;;
70450;SDS011;58869;51.982;4.450;2024-01-15T01:55:32;5.69;;;3.38;;
70450;SDS011;58869;51.982;4.450;2024-01-15T01:58:03;6.80;;;4.03;;
70450;SDS011;58869;51.982;4.450;2024-01-15T02:00:35;6.47;;;3.81;;
70450;SDS011;58869;51.982;4.450;2024-01-15T02:03:04;6.99;;;4.08;;
70450;SDS011;58869;51.982;4.450;2024-01-15T02:05:33;8.04;;;4.69;;
70450;SDS011;58869;51.982;4.450;2024-01-15T02:08:08;7.03;;;4.14;;
70450;SDS011;58869;51.982;4.450;2024-01-15T02:10:33;7.10;;;4.19;;
70450;SDS011;58869;51.982;4.450;2024-01-15T02:13:02;6.37;;;3.78;;
70450;SDS011;58869;51.982;4.450;2024-01-15T02:15:31;6.36;;;3.74;;
70450;SDS011;58869;51.982;4.450;2024-01-15T02:18:00;6.44;;;3.77;;
70450;SDS011;58869;51.982;4.450;2024-01-15T02:20:54;5.26;;;3.04;;
70450;SDS011;58869;51.982;4.450;2024-01-15T02:23:38;5.45;;;3.16;;
70450;SDS011;58869;51.982;4.450;2024-01-15T02:26:22;3.99;;;2.32;;
70450;SDS011;58869;51.982;4.450;2024-01-15T02:28:48;3.82;;;2.24;;
70450;SDS011;58869;51.982;4.450;2024-01-15T02:31:39;3.47;;;2.05;;
70450;SDS011;58869;51.982;4.450;2024-01-15T02:34:07;3.24;;;1.93;;
70450;SDS011;58869;51.982;4.450;2024-01-15T02:36:41;3.01;;;1.79;;
70450;SDS011;58869;51.982;4.450;2024-01-15T02:39:06;3.57;;;2.13;;
70450;SDS011;58869;51.982;4.450;2024-01-15T02:41:43;3.07;;;1.82;;
70450;SDS011;58869;51.982;4.450;2024-01-15T02:44:12;3.68;;;2.20;;
70450;SDS011;58869;51.982;4.450;2024-01-15T02:46:37;3.08;;;1.84;;
70450;SDS011;58869;51.982;4.450;2024-01-15T02:49:03;2.96;;;1.78;;
70450;SDS011;58869;51.982;4.450;2024-01-15T02:51:28;3.35;;;2.03;;
70450;SDS011;58869;51.982;4.450;2024-01-15T02:53:54;3.15;;;1.88;;
70450;SDS011;58869;51.982;4.450;2024-01-15T02:56:23;4.12;;;2.45;;
70450;SDS011;58869;51.982;4.450;2024-01-15T02:58:48;3.36;;;2.00;;
70450;SDS011;58869;51.982;4.450;2024-01-15T03:01:14;3.70;;;2.19;;
70450;SDS011;58869;51.982;4.450;2024-01-15T03:03:42;3.34;;;1.98;;
70450;SDS011;58869;51.982;4.450;2024-01-15T03:06:07;2.63;;;1.57;;
70450;SDS011;58869;51.982;4.450;2024-01-15T03:08:38;2.95;;;1.79;;
70450;SDS011;58869;51.982;4.450;2024-01-15T03:11:04;3.90;;;2.35;;
70450;SDS011;58869;51.982;4.450;2024-01-15T03:13:29;4.15;;;2.49;;
70450;SDS011;58869;51.982;4.450;2024-01-15T03:15:55;3.30;;;1.98;;
70450;SDS011;58869;51.982;4.450;2024-01-15T03:18:27;2.93;;;1.76;;
70450;SDS011;58869;51.982;4.450;2024-01-15T03:20:59;2.45;;;1.48;;
70450;SDS011;58869;51.982;4.450;2024-01-15T03:23:27;2.93;;;1.77;;
70450;SDS011;58869;51.982;4.450;2024-01-15T03:25:56;2.74;;;1.66;;
70450;SDS011;58869;51.982;4.450;2024-01-15T03:28:24;4.60;;;2.75;;
70450;SDS011;58869;51.982;4.450;2024-01-15T03:30:49;4.19;;;2.49;;
70450;SDS011;58869;51.982;4.450;2024-01-15T03:33:15;4.78;;;2.85;;
70450;SDS011;58869;51.982;4.450;2024-01-15T03:35:58;5.02;;;2.98;;
70450;SDS011;58869;51.982;4.450;2024-01-15T03:38:29;4.99;;;2.98;;
70450;SDS011;58869;51.982;4.450;2024-01-15T03:41:00;4.82;;;2.88;;
70450;SDS011;58869;51.982;4.450;2024-01-15T03:43:29;5.71;;;3.38;;
70450;SDS011;58869;51.982;4.450;2024-01-15T03:45:59;6.36;;;3.76;;
70450;SDS011;58869;51.982;4.450;2024-01-15T03:48:31;5.29;;;3.16;;
70450;SDS011;58869;51.982;4.450;2024-01-15T03:51:03;4.87;;;2.90;;
70450;SDS011;58869;51.982;4.450;2024-01-15T03:53:34;5.14;;;3.05;;
70450;SDS011;58869;51.982;4.450;2024-01-15T03:56:02;5.00;;;2.96;;
70450;SDS011;58869;51.982;4.450;2024-01-15T03:58:46;4.27;;;2.53;;
70450;SDS011;58869;51.982;4.450;2024-01-15T04:01:17;4.60;;;2.73;;
70450;SDS011;58869;51.982;4.450;2024-01-15T04:03:46;4.32;;;2.54;;
70450;SDS011;58869;51.982;4.450;2024-01-15T04:06:17;4.25;;;2.52;;
70450;SDS011;58869;51.982;4.450;2024-01-15T04:08:46;4.19;;;2.49;;
70450;SDS011;58869;51.982;4.450;2024-01-15T04:11:29;4.56;;;2.72;;
70450;SDS011;58869;51.982;4.450;2024-01-15T04:14:04;4.62;;;2.79;;
70450;SDS011;58869;51.982;4.450;2024-01-15T04:16:30;4.38;;;2.64;;
70450;SDS011;58869;51.982;4.450;2024-01-15T04:18:56;4.53;;;2.72;;
70450;SDS011;58869;51.982;4.450;2024-01-15T04:21:22;4.41;;;2.65;;
70450;SDS011;58869;51.982;4.450;2024-01-15T04:23:56;4.63;;;2.78;;
70450;SDS011;58869;51.982;4.450;2024-01-15T04:26:24;3.55;;;2.14;;
70450;SDS011;58869;51.982;4.450;2024-01-15T04:28:56;3.49;;;2.11;;
70450;SDS011;58869;51.982;4.450;2024-01-15T04:31:25;3.88;;;2.32;;
70450;SDS011;58869;51.982;4.450;2024-01-15T04:33:52;3.78;;;2.23;;
70450;SDS011;58869;51.982;4.450;2024-01-15T04:36:17;4.79;;;2.81;;
70450;SDS011;58869;51.982;4.450;2024-01-15T04:38:43;3.97;;;2.34;;
70450;SDS011;58869;51.982;4.450;2024-01-15T04:41:16;3.74;;;2.21;;
70450;SDS011;58869;51.982;4.450;2024-01-15T04:43:42;2.92;;;1.72;;
70450;SDS011;58869;51.982;4.450;2024-01-15T04:46:09;2.54;;;1.51;;
70450;SDS011;58869;51.982;4.450;2024-01-15T04:48:44;2.50;;;1.50;;
70450;SDS011;58869;51.982;4.450;2024-01-15T04:51:15;2.01;;;1.21;;
70450;SDS011;58869;51.982;4.450;2024-01-15T04:53:53;2.47;;;1.49;;
70450;SDS011;58869;51.982;4.450;2024-01-15T04:56:27;2.27;;;1.37;;
70450;SDS011;58869;51.982;4.450;2024-01-15T04:59:11;2.22;;;1.34;;
70450;SDS011;58869;51.982;4.450;2024-01-15T05:04:36;1.97;;;1.20;;
70450;SDS011;58869;51.982;4.450;2024-01-15T05:07:02;2.21;;;1.35;;
70450;SDS011;58869;51.982;4.450;2024-01-15T05:09:28;2.19;;;1.34;;
70450;SDS011;58869;51.982;4.450;2024-01-15T05:11:57;2.53;;;1.56;;
70450;SDS011;58869;51.982;4.450;2024-01-15T05:14:32;2.33;;;1.44;;
70450;SDS011;58869;51.982;4.450;2024-01-15T05:17:00;1.99;;;1.24;;
70450;SDS011;58869;51.982;4.450;2024-01-15T05:19:32;3.27;;;2.03;;
70450;SDS011;58869;51.982;4.450;2024-01-15T05:22:06;2.65;;;1.64;;
70450;SDS011;58869;51.982;4.450;2024-01-15T05:24:35;2.60;;;1.63;;
70450;SDS011;58869;51.982;4.450;2024-01-15T05:27:00;2.76;;;1.72;;
70450;SDS011;58869;51.982;4.450;2024-01-15T05:29:26;2.76;;;1.71;;
70450;SDS011;58869;51.982;4.450;2024-01-15T05:32:07;3.51;;;2.16;;
70450;SDS011;58869;51.982;4.450;2024-01-15T05:34:32;3.19;;;1.98;;
70450;SDS011;58869;51.982;4.450;2024-01-15T05:37:07;3.62;;;2.24;;
70450;SDS011;58869;51.982;4.450;2024-01-15T05:45:58;4.39;;;2.75;;
70450;SDS011;58869;51.982;4.450;2024-01-15T05:48:30;4.26;;;2.66;;
70450;SDS011;58869;51.982;4.450;2024-01-15T05:50:56;3.87;;;2.43;;
70450;SDS011;58869;51.982;4.450;2024-01-15T05:53:27;4.61;;;2.85;;
70450;SDS011;58869;51.982;4.450;2024-01-15T05:56:05;4.52;;;2.76;;
70450;SDS011;58869;51.982;4.450;2024-01-15T05:58:30;5.13;;;3.12;;
70450;SDS011;58869;51.982;4.450;2024-01-15T06:00:56;4.80;;;2.93;;
70450;SDS011;58869;51.982;4.450;2024-01-15T06:03:24;3.97;;;2.42;;
70450;SDS011;58869;51.982;4.450;2024-01-15T06:05:53;4.17;;;2.53;;
70450;SDS011;58869;51.982;4.450;2024-01-15T06:08:25;4.26;;;2.60;;
70450;SDS011;58869;51.982;4.450;2024-01-15T06:11:08;3.55;;;2.19;;
70450;SDS011;58869;51.982;4.450;2024-01-15T06:13:34;3.13;;;1.91;;
70450;SDS011;58869;51.982;4.450;2024-01-15T06:16:00;2.32;;;1.43;;
70450;SDS011;58869;51.982;4.450;2024-01-15T06:18:25;2.27;;;1.40;;
70450;SDS011;58869;51.982;4.450;2024-01-15T06:20:51;1.51;;;0.93;;
70450;SDS011;58869;51.982;4.450;2024-01-15T06:23:16;2.08;;;1.28;;
70450;SDS011;58869;51.982;4.450;2024-01-15T06:25:54;2.23;;;1.38;;
70450;SDS011;58869;51.982;4.450;2024-01-15T06:28:37;1.95;;;1.19;;
70450;SDS011;58869;51.982;4.450;2024-01-15T06:31:12;2.90;;;1.76;;
70450;SDS011;58869;51.982;4.450;2024-01-15T06:33:38;2.53;;;1.55;;
70450;SDS011;58869;51.982;4.450;2024-01-15T06:36:09;2.35;;;1.45;;
70450;SDS011;58869;51.982;4.450;2024-01-15T06:41:15;2.95;;;1.80;;
70450;SDS011;58869;51.982;4.450;2024-01-15T06:43:43;3.28;;;1.99;;
70450;SDS011;58869;51.982;4.450;2024-01-15T06:46:09;3.68;;;2.23;;
70450;SDS011;58869;51.982;4.450;2024-01-15T06:48:37;3.79;;;2.31;;
70450;SDS011;58869;51.982;4.450;2024-01-15T06:51:02;4.39;;;2.72;;
70450;SDS011;58869;51.982;4.450;2024-01-15T06:53:34;4.23;;;2.69;;
70450;SDS011;58869;51.982;4.450;2024-01-15T06:56:17;3.80;;;2.48;;
70450;SDS011;58869;51.982;4.450;2024-01-15T06:58:45;4.23;;;2.79;;
70450;SDS011;58869;51.982;4.450;2024-01-15T07:01:10;4.30;;;2.87;;
70450;SDS011;58869;51.982;4.450;2024-01-15T07:03:36;3.41;;;2.33;;
70450;SDS011;58869;51.982;4.450;2024-01-15T07:06:01;3.09;;;2.11;;
70450;SDS011;58869;51.982;4.450;2024-01-15T07:08:35;3.57;;;2.39;;
70450;SDS011;58869;51.982;4.450;2024-01-15T07:11:04;3.58;;;2.32;;
70450;SDS011;58869;51.982;4.450;2024-01-15T07:13:33;4.47;;;2.88;;
70450;SDS011;58869;51.982;4.450;2024-01-15T07:16:08;4.45;;;2.87;;
70450;SDS011;58869;51.982;4.450;2024-01-15T07:18:42;4.22;;;2.68;;
70450;SDS011;58869;51.982;4.450;2024-01-15T07:21:13;4.42;;;2.78;;
70450;SDS011;58869;51.982;4.450;2024-01-15T07:23:45;3.96;;;2.53;;
70450;SDS011;58869;51.982;4.450;2024-01-15T07:26:29;4.21;;;2.63;;
70450;SDS011;58869;51.982;4.450;2024-01-15T07:28:55;4.42;;;2.72;;
70450;SDS011;58869;51.982;4.450;2024-01-15T07:34:05;4.78;;;2.92;;
70450;SDS011;58869;51.982;4.450;2024-01-15T07:36:30;5.35;;;3.25;;
70450;SDS011;58869;51.982;4.450;2024-01-15T07:39:05;5.35;;;3.24;;
70450;SDS011;58869;51.982;4.450;2024-01-15T07:41:40;6.07;;;3.74;;
70450;SDS011;58869;51.982;4.450;2024-01-15T07:44:11;7.06;;;4.40;;
70450;SDS011;58869;51.982;4.450;2024-01-15T07:46:39;7.27;;;4.47;;
70450;SDS011;58869;51.982;4.450;2024-01-15T07:49:09;7.23;;;4.45;;
70450;SDS011;58869;51.982;4.450;2024-01-15T07:51:37;6.53;;;4.08;;
70450;SDS011;58869;51.982;4.450;2024-01-15T07:56:58;5.71;;;3.56;;
70450;SDS011;58869;51.982;4.450;2024-01-15T07:59:26;5.52;;;3.47;;
70450;SDS011;58869;51.982;4.450;2024-01-15T08:01:55;4.60;;;2.90;;
70450;SDS011;58869;51.982;4.450;2024-01-15T08:04:42;5.68;;;3.59;;
70450;SDS011;58869;51.982;4.450;2024-01-15T08:12:54;6.32;;;3.89;;
70450;SDS011;58869;51.982;4.450;2024-01-15T08:15:38;5.36;;;3.27;;
70450;SDS011;58869;51.982;4.450;2024-01-15T08:20:59;4.71;;;2.89;;
70450;SDS011;58869;51.982;4.450;2024-01-15T08:23:27;3.18;;;1.95;;
70450;SDS011;58869;51.982;4.450;2024-01-15T08:29:10;3.36;;;2.07;;
70450;SDS011;58869;51.982;4.450;2024-01-15T08:31:36;3.07;;;1.90;;
70450;SDS011;58869;51.982;4.450;2024-01-15T08:34:01;3.50;;;2.18;;
70450;SDS011;58869;51.982;4.450;2024-01-15T08:36:27;3.43;;;2.13;;
70450;SDS011;58869;51.982;4.450;2024-01-15T08:54:34;3.38;;;2.08;;
70450;SDS011;58869;51.982;4.450;2024-01-15T09:03:04;3.72;;;2.28;;
70450;SDS011;58869;51.982;4.450;2024-01-15T09:05:33;3.21;;;1.98;;
70450;SDS011;58869;51.982;4.450;2024-01-15T09:08:04;3.90;;;2.39;;
70450;SDS011;58869;51.982;4.450;2024-01-15T09:10:35;5.12;;;3.09;;
70450;SDS011;58869;51.982;4.450;2024-01-15T09:13:00;4.88;;;2.94;;
70450;SDS011;58869;51.982;4.450;2024-01-15T09:15:32;5.14;;;3.09;;
70450;SDS011;58869;51.982;4.450;2024-01-15T09:18:01;5.98;;;3.54;;
70450;SDS011;58869;51.982;4.450;2024-01-15T09:20:30;5.80;;;3.45;;
70450;SDS011;58869;51.982;4.450;2024-01-15T09:23:06;5.37;;;3.21;;
70450;SDS011;58869;51.982;4.450;2024-01-15T09:25:47;6.29;;;3.77;;
70450;SDS011;58869;51.982;4.450;2024-01-15T09:28:13;5.81;;;3.50;;
70450;SDS011;58869;51.982;4.450;2024-01-15T09:30:42;6.31;;;3.78;;
70450;SDS011;58869;51.982;4.450;2024-01-15T09:33:08;6.30;;;3.75;;
70450;SDS011;58869;51.982;4.450;2024-01-15T09:42:13;5.17;;;3.19;;
70450;SDS011;58869;51.982;4.450;2024-01-15T09:44:51;4.80;;;3.01;;
70450;SDS011;58869;51.982;4.450;2024-01-15T09:47:32;5.15;;;3.21;;
70450;SDS011;58869;51.982;4.450;2024-01-15T09:50:02;5.24;;;3.21;;
70450;SDS011;58869;51.982;4.450;2024-01-15T09:52:40;4.69;;;2.86;;
70450;SDS011;58869;51.982;4.450;2024-01-15T09:55:09;3.37;;;2.04;;
70450;SDS011;58869;51.982;4.450;2024-01-15T09:57:34;3.19;;;1.93;;
70450;SDS011;58869;51.982;4.450;2024-01-15T10:00:21;3.32;;;2.02;;
70450;SDS011;58869;51.982;4.450;2024-01-15T10:02:47;3.09;;;1.91;;
70450;SDS011;58869;51.982;4.450;2024-01-15T10:05:30;3.36;;;2.10;;
70450;SDS011;58869;51.982;4.450;2024-01-15T10:08:01;3.26;;;2.05;;
70450;SDS011;58869;51.982;4.450;2024-01-15T10:13:00;3.92;;;2.44;;
70450;SDS011;58869;51.982;4.450;2024-01-15T10:15:26;3.84;;;2.40;;
70450;SDS011;58869;51.982;4.450;2024-01-15T10:17:52;3.75;;;2.33;;
70450;SDS011;58869;51.982;4.450;2024-01-15T10:20:34;3.55;;;2.20;;
70450;SDS011;58869;51.982;4.450;2024-01-15T10:23:12;4.60;;;2.83;;
70450;SDS011;58869;51.982;4.450;2024-01-15T10:25:41;4.90;;;3.03;;
70450;SDS011;58869;51.982;4.450;2024-01-15T10:34:33;3.85;;;2.39;;
70450;SDS011;58869;51.982;4.450;2024-01-15T10:40:10;3.79;;;2.33;;
70450;SDS011;58869;51.982;4.450;2024-01-15T10:42:39;3.42;;;2.10;;
70450;SDS011;58869;51.982;4.450;2024-01-15T10:45:04;3.52;;;2.15;;
70450;SDS011;58869;51.982;4.450;2024-01-15T10:50:10;4.65;;;2.84;;
70450;SDS011;58869;51.982;4.450;2024-01-15T10:52:37;4.79;;;2.98;;
70450;SDS011;58869;51.982;4.450;2024-01-15T10:55:05;4.97;;;3.10;;
70450;SDS011;58869;51.982;4.450;2024-01-15T10:57:34;4.25;;;2.67;;
70450;SDS011;58869;51.982;4.450;2024-01-15T11:00:00;3.77;;;2.33;;
70450;SDS011;58869;51.982;4.450;2024-01-15T11:02:28;3.98;;;2.44;;
70450;SDS011;58869;51.982;4.450;2024-01-15T11:04:54;3.76;;;2.30;;
70450;SDS011;58869;51.982;4.450;2024-01-15T11:07:21;4.22;;;2.58;;
70450;SDS011;58869;51.982;4.450;2024-01-15T11:09:49;4.17;;;2.53;;
70450;SDS011;58869;51.982;4.450;2024-01-15T11:12:16;4.89;;;2.96;;
70450;SDS011;58869;51.982;4.450;2024-01-15T11:15:02;4.77;;;2.91;;
70450;SDS011;58869;51.982;4.450;2024-01-15T11:20:22;4.88;;;2.98;;
70450;SDS011;58869;51.982;4.450;2024-01-15T11:22:53;4.68;;;2.90;;
70450;SDS011;58869;51.982;4.450;2024-01-15T11:25:18;4.03;;;2.52;;
70450;SDS011;58869;51.982;4.450;2024-01-15T11:27:45;4.06;;;2.52;;
70450;SDS011;58869;51.982;4.450;2024-01-15T11:30:24;4.76;;;2.91;;
70450;SDS011;58869;51.982;4.450;2024-01-15T11:32:50;5.58;;;3.38;;
70450;SDS011;58869;51.982;4.450;2024-01-15T11:35:16;5.57;;;3.35;;
70450;SDS011;58869;51.982;4.450;2024-01-15T11:40:58;4.67;;;2.80;;
70450;SDS011;58869;51.982;4.450;2024-01-15T11:43:07;4.51;;;2.74;;
70450;SDS011;58869;51.982;4.450;2024-01-15T11:45:34;5.19;;;3.15;;
70450;SDS011;58869;51.982;4.450;2024-01-15T11:48:10;4.92;;;2.96;;
70450;SDS011;58869;51.982;4.450;2024-01-15T11:53:13;3.91;;;2.38;;
70450;SDS011;58869;51.982;4.450;2024-01-15T11:55:50;5.46;;;3.32;;
70450;SDS011;58869;51.982;4.450;2024-01-15T11:58:17;6.63;;;3.99;;
70450;SDS011;58869;51.982;4.450;2024-01-15T12:01:04;5.46;;;3.29;;
70450;SDS011;58869;51.982;4.450;2024-01-15T12:03:45;4.28;;;2.61;;
70450;SDS011;58869;51.982;4.450;2024-01-15T12:06:12;4.31;;;2.62;;
70450;SDS011;58869;51.982;4.450;2024-01-15T12:08:38;4.80;;;2.90;;
70450;SDS011;58869;51.982;4.450;2024-01-15T12:11:10;6.66;;;3.98;;
70450;SDS011;58869;51.982;4.450;2024-01-15T12:13:39;5.16;;;3.08;;
70450;SDS011;58869;51.982;4.450;2024-01-15T12:16:04;5.71;;;3.42;;
70450;SDS011;58869;51.982;4.450;2024-01-15T12:18:30;6.06;;;3.64;;
70450;SDS011;58869;51.982;4.450;2024-01-15T12:20:56;4.75;;;2.88;;
70450;SDS011;58869;51.982;4.450;2024-01-15T12:23:21;4.84;;;2.96;;
70450;SDS011;58869;51.982;4.450;2024-01-15T12:25:47;5.20;;;3.20;;
70450;SDS011;58869;51.982;4.450;2024-01-15T12:28:12;5.34;;;3.31;;
70450;SDS011;58869;51.982;4.450;2024-01-15T12:30:38;4.83;;;3.02;;
70450;SDS011;58869;51.982;4.450;2024-01-15T12:33:04;4.63;;;2.96;;
70450;SDS011;58869;51.982;4.450;2024-01-15T12:35:33;4.11;;;2.65;;
70450;SDS011;58869;51.982;4.450;2024-01-15T12:38:02;4.77;;;3.07;;
70450;SDS011;58869;51.982;4.450;2024-01-15T12:40:28;5.36;;;3.39;;
70450;SDS011;58869;51.982;4.450;2024-01-15T12:42:53;5.66;;;3.52;;
70450;SDS011;58869;51.982;4.450;2024-01-15T12:45:20;5.55;;;3.44;;
70450;SDS011;58869;51.982;4.450;2024-01-15T12:47:45;7.04;;;4.37;;
70450;SDS011;58869;51.982;4.450;2024-01-15T12:50:11;6.45;;;3.97;;
70450;SDS011;58869;51.982;4.450;2024-01-15T12:52:39;7.30;;;4.52;;
70450;SDS011;58869;51.982;4.450;2024-01-15T12:55:07;7.67;;;4.66;;
70450;SDS011;58869;51.982;4.450;2024-01-15T12:57:36;8.17;;;4.97;;
70450;SDS011;58869;51.982;4.450;2024-01-15T13:00:03;8.87;;;5.37;;
70450;SDS011;58869;51.982;4.450;2024-01-15T13:02:37;9.30;;;5.66;;
70450;SDS011;58869;51.982;4.450;2024-01-15T13:05:07;8.00;;;4.89;;
70450;SDS011;58869;51.982;4.450;2024-01-15T13:07:34;8.50;;;5.19;;
70450;SDS011;58869;51.982;4.450;2024-01-15T13:09:59;8.53;;;5.23;;
70450;SDS011;58869;51.982;4.450;2024-01-15T13:12:25;8.38;;;5.07;;
70450;SDS011;58869;51.982;4.450;2024-01-15T13:14:50;8.94;;;5.42;;
70450;SDS011;58869;51.982;4.450;2024-01-15T13:17:15;7.90;;;4.83;;
70450;SDS011;58869;51.982;4.450;2024-01-15T13:19:47;7.56;;;4.62;;
70450;SDS011;58869;51.982;4.450;2024-01-15T13:22:13;5.43;;;3.29;;
70450;SDS011;58869;51.982;4.450;2024-01-15T13:24:39;3.47;;;2.10;;
70450;SDS011;58869;51.982;4.450;2024-01-15T13:27:05;3.58;;;2.16;;
70450;SDS011;58869;51.982;4.450;2024-01-15T13:29:33;3.40;;;2.06;;
70450;SDS011;58869;51.982;4.450;2024-01-15T13:32:05;3.68;;;2.26;;
70450;SDS011;58869;51.982;4.450;2024-01-15T13:34:31;3.33;;;2.05;;
70450;SDS011;58869;51.982;4.450;2024-01-15T13:39:51;3.69;;;2.30;;
70450;SDS011;58869;51.982;4.450;2024-01-15T13:45:48;5.15;;;3.16;;
70450;SDS011;58869;51.982;4.450;2024-01-15T13:48:17;4.91;;;3.08;;
70450;SDS011;58869;51.982;4.450;2024-01-15T13:51:08;4.83;;;3.07;;
70450;SDS011;58869;51.982;4.450;2024-01-15T14:02:20;5.79;;;3.68;;
70450;SDS011;58869;51.982;4.450;2024-01-15T14:04:58;6.15;;;3.84;;
70450;SDS011;58869;51.982;4.450;2024-01-15T14:10:28;7.69;;;4.73;;
70450;SDS011;58869;51.982;4.450;2024-01-15T14:13:12;8.04;;;4.91;;
70450;SDS011;58869;51.982;4.450;2024-01-15T14:18:26;7.33;;;4.47;;
70450;SDS011;58869;51.982;4.450;2024-01-15T14:21:10;7.36;;;4.58;;
70450;SDS011;58869;51.982;4.450;2024-01-15T14:23:42;7.61;;;4.71;;
70450;SDS011;58869;51.982;4.450;2024-01-15T14:26:07;6.22;;;3.90;;
70450;SDS011;58869;51.982;4.450;2024-01-15T14:28:51;8.07;;;4.97;;
70450;SDS011;58869;51.982;4.450;2024-01-15T14:31:32;7.03;;;4.26;;
70450;SDS011;58869;51.982;4.450;2024-01-15T14:36:43;6.06;;;3.76;;
70450;SDS011;58869;51.982;4.450;2024-01-15T14:39:09;5.45;;;3.36;;
70450;SDS011;58869;51.982;4.450;2024-01-15T14:41:35;6.03;;;3.77;;
70450;SDS011;58869;51.982;4.450;2024-01-15T14:47:06;6.04;;;3.88;;
70450;SDS011;58869;51.982;4.450;2024-01-15T14:49:50;5.40;;;3.49;;
70450;SDS011;58869;51.982;4.450;2024-01-15T14:52:19;5.52;;;3.55;;
70450;SDS011;58869;51.982;4.450;2024-01-15T14:54:45;5.60;;;3.57;;
70450;SDS011;58869;51.982;4.450;2024-01-15T15:00:20;5.83;;;3.69;;
70450;SDS011;58869;51.982;4.450;2024-01-15T15:02:52;5.99;;;3.86;;
70450;SDS011;58869;51.982;4.450;2024-01-15T15:05:24;5.84;;;3.71;;
70450;SDS011;58869;51.982;4.450;2024-01-15T15:07:51;6.21;;;3.90;;
70450;SDS011;58869;51.982;4.450;2024-01-15T15:10:25;7.42;;;4.63;;
70450;SDS011;58869;51.982;4.450;2024-01-15T15:13:04;6.92;;;4.34;;
70450;SDS011;58869;51.982;4.450;2024-01-15T15:15:32;5.04;;;3.19;;
70450;SDS011;58869;51.982;4.450;2024-01-15T15:18:04;4.04;;;2.59;;
70450;SDS011;58869;51.982;4.450;2024-01-15T15:23:36;3.09;;;2.01;;
70450;SDS011;58869;51.982;4.450;2024-01-15T15:32:27;4.60;;;3.02;;
70450;SDS011;58869;51.982;4.450;2024-01-15T15:40:25;5.85;;;3.73;;
70450;SDS011;58869;51.982;4.450;2024-01-15T15:42:50;6.82;;;4.28;;
70450;SDS011;58869;51.982;4.450;2024-01-15T15:45:16;6.76;;;4.23;;
70450;SDS011;58869;51.982;4.450;2024-01-15T15:47:42;7.53;;;4.69;;
70450;SDS011;58869;51.982;4.450;2024-01-15T15:50:25;7.06;;;4.39;;
70450;SDS011;58869;51.982;4.450;2024-01-15T15:53:03;8.27;;;5.12;;
70450;SDS011;58869;51.982;4.450;2024-01-15T15:58:33;6.31;;;4.01;;
70450;SDS011;58869;51.982;4.450;2024-01-15T16:04:27;5.04;;;3.26;;
70450;SDS011;58869;51.982;4.450;2024-01-15T16:06:52;4.91;;;3.18;;
70450;SDS011;58869;51.982;4.450;2024-01-15T16:10:03;5.90;;;3.81;;
70450;SDS011;58869;51.982;4.450;2024-01-15T16:12:35;6.74;;;4.28;;
70450;SDS011;58869;51.982;4.450;2024-01-15T16:15:17;6.34;;;3.99;;
70450;SDS011;58869;51.982;4.450;2024-01-15T16:17:44;7.53;;;4.75;;
70450;SDS011;58869;51.982;4.450;2024-01-15T16:20:10;7.20;;;4.58;;
70450;SDS011;58869;51.982;4.450;2024-01-15T16:23:05;8.25;;;5.18;;
70450;SDS011;58869;51.982;4.450;2024-01-15T16:25:31;8.83;;;6.07;;
70450;SDS011;58869;51.982;4.450;2024-01-15T16:27:57;6.87;;;4.66;;
70450;SDS011;58869;51.982;4.450;2024-01-15T16:33:32;9.27;;;5.83;;
70450;SDS011;58869;51.982;4.450;2024-01-15T16:35:58;7.97;;;4.99;;
70450;SDS011;58869;51.982;4.450;2024-01-15T16:38:23;7.01;;;4.40;;
70450;SDS011;58869;51.982;4.450;2024-01-15T16:41:11;5.51;;;3.48;;
70450;SDS011;58869;51.982;4.450;2024-01-15T16:43:51;4.28;;;2.71;;
70450;SDS011;58869;51.982;4.450;2024-01-15T16:46:16;3.43;;;2.17;;
70450;SDS011;58869;51.982;4.450;2024-01-15T16:48:42;3.05;;;1.93;;
70450;SDS011;58869;51.982;4.450;2024-01-15T16:51:07;3.10;;;1.99;;
70450;SDS011;58869;51.982;4.450;2024-01-15T16:53:39;2.71;;;1.77;;
70450;SDS011;58869;51.982;4.450;2024-01-15T16:56:04;2.90;;;1.92;;
70450;SDS011;58869;51.982;4.450;2024-01-15T16:58:30;3.05;;;2.04;;
70450;SDS011;58869;51.982;4.450;2024-01-15T17:00:55;3.95;;;2.70;;
70450;SDS011;58869;51.982;4.450;2024-01-15T17:03:21;3.38;;;2.29;;
70450;SDS011;58869;51.982;4.450;2024-01-15T17:05:46;3.42;;;2.37;;
70450;SDS011;58869;51.982;4.450;2024-01-15T17:08:12;3.55;;;2.41;;
70450;SDS011;58869;51.982;4.450;2024-01-15T17:10:59;3.87;;;2.61;;
70450;SDS011;58869;51.982;4.450;2024-01-15T17:13:24;5.01;;;3.37;;
70450;SDS011;58869;51.982;4.450;2024-01-15T17:15:50;4.72;;;3.17;;
70450;SDS011;58869;51.982;4.450;2024-01-15T17:18:15;5.41;;;3.55;;
70450;SDS011;58869;51.982;4.450;2024-01-15T17:20:41;5.51;;;3.61;;
70450;SDS011;58869;51.982;4.450;2024-01-15T17:23:10;6.42;;;4.12;;
70450;SDS011;58869;51.982;4.450;2024-01-15T17:25:48;6.46;;;4.09;;
70450;SDS011;58869;51.982;4.450;2024-01-15T17:28:14;6.18;;;3.97;;
70450;SDS011;58869;51.982;4.450;2024-01-15T17:30:46;7.10;;;4.51;;
70450;SDS011;58869;51.982;4.450;2024-01-15T17:33:18;6.66;;;4.24;;
70450;SDS011;58869;51.982;4.450;2024-01-15T17:38:36;5.89;;;3.93;;
70450;SDS011;58869;51.982;4.450;2024-01-15T17:41:04;6.60;;;4.37;;
70450;SDS011;58869;51.982;4.450;2024-01-15T17:43:30;6.32;;;4.14;;
70450;SDS011;58869;51.982;4.450;2024-01-15T17:45:57;7.49;;;4.85;;